createdAt,value
2019-05-10T00:03:22.602Z,10.40
2019-05-10T00:08:42.183Z,10.40
2019-05-10T00:13:48.753Z,10.40
2019-05-10T00:18:50.283Z,10.30
2019-05-10T00:23:51.765Z,10.30
2019-05-10T00:28:54.083Z,10.30
2019-05-10T00:33:55.536Z,10.30
2019-05-10T00:38:57.039Z,10.30
2019-05-10T00:43:58.500Z,10.40
2019-05-10T00:48:59.993Z,10.40
2019-05-10T00:54:02.584Z,10.50
2019-05-10T00:59:04.192Z,10.50
2019-05-10T01:04:05.614Z,10.40
2019-05-10T01:09:08.120Z,10.40
2019-05-10T01:14:09.499Z,10.50
2019-05-10T01:19:10.987Z,10.50
2019-05-10T01:24:12.426Z,10.50
2019-05-10T01:29:13.904Z,10.40
2019-05-10T01:34:16.321Z,10.40
2019-05-10T01:39:18.730Z,10.40
2019-05-10T01:44:20.187Z,10.50
2019-05-10T01:49:21.643Z,10.50
2019-05-10T01:54:23.126Z,10.60
2019-05-10T01:59:24.610Z,10.50
2019-05-10T02:04:26.077Z,10.50
2019-05-10T02:09:27.659Z,10.40
2019-05-10T02:14:29.014Z,10.30
2019-05-10T02:19:30.508Z,10.20
2019-05-10T02:24:31.984Z,10.20
2019-05-10T02:29:33.428Z,10.20
2019-05-10T02:34:34.918Z,10.20
2019-05-10T02:39:36.426Z,10.20
2019-05-10T02:44:37.895Z,10.20
2019-05-10T02:49:39.319Z,10.30
2019-05-10T02:54:42.821Z,10.30
2019-05-10T02:59:47.235Z,10.30
2019-05-10T03:04:52.479Z,10.30
2019-05-10T03:09:53.809Z,10.20
2019-05-10T03:14:58.434Z,10.20
2019-05-10T03:20:00.284Z,10.20
2019-05-10T03:25:05.373Z,10.10
2019-05-10T03:30:07.453Z,10.10
2019-05-10T03:35:10.164Z,10.10
2019-05-10T03:40:11.795Z,10.00
2019-05-10T03:45:13.357Z,9.90
2019-05-10T03:50:15.077Z,10.00
2019-05-10T03:55:17.533Z,9.90
2019-05-10T04:00:20.181Z,9.90
2019-05-10T04:05:21.731Z,9.90
2019-05-10T04:10:23.171Z,9.90
2019-05-10T04:15:25.574Z,9.90
2019-05-10T04:20:27.091Z,9.90
2019-05-10T04:25:28.539Z,9.90
2019-05-10T04:30:31.893Z,9.90
2019-05-10T04:35:35.524Z,9.90
2019-05-10T04:40:42.838Z,9.90
2019-05-10T04:45:46.420Z,9.90
2019-05-10T04:50:50.070Z,9.90
2019-05-10T04:55:51.485Z,9.90
2019-05-10T05:00:53.019Z,9.90
2019-05-10T05:05:55.393Z,9.90
2019-05-10T05:10:57.786Z,9.90
2019-05-10T05:15:59.246Z,9.90
2019-05-10T05:21:00.901Z,10.00
2019-05-10T05:26:05.503Z,10.10
2019-05-10T05:31:10.635Z,10.20
2019-05-10T05:36:12.218Z,10.30
2019-05-10T05:41:19.456Z,10.40
2019-05-10T05:46:23.030Z,10.50
2019-05-10T05:51:25.514Z,10.50
2019-05-10T05:56:26.893Z,10.60
2019-05-10T06:01:34.215Z,10.80
2019-05-10T06:06:38.754Z,10.90
2019-05-10T06:11:40.038Z,10.90
2019-05-10T06:16:44.996Z,10.80
2019-05-10T06:21:46.735Z,10.90
2019-05-10T06:26:49.253Z,11.00
2019-05-10T06:31:50.540Z,10.90
2019-05-10T06:36:51.899Z,10.90
2019-05-10T06:41:56.136Z,10.90
2019-05-10T06:52:10.171Z,10.80
2019-05-10T06:57:17.547Z,11.00
2019-05-10T07:02:20.049Z,11.10
2019-05-10T07:07:33.121Z,11.10
2019-05-10T07:12:22.530Z,11.10
2019-05-10T07:17:23.801Z,11.20
2019-05-10T07:22:26.856Z,11.60
2019-05-10T07:27:28.541Z,12.20
2019-05-10T07:32:30.052Z,12.40
2019-05-10T07:37:31.490Z,12.60
2019-05-10T07:42:32.961Z,13.00
2019-05-10T07:47:34.239Z,13.10
2019-05-10T07:52:43.168Z,13.30
2019-05-10T07:57:40.237Z,13.70
2019-05-10T08:02:44.360Z,14.50
2019-05-10T08:07:44.918Z,14.80
2019-05-10T08:12:52.370Z,15.60
2019-05-10T08:17:53.670Z,15.30
2019-05-10T08:22:55.181Z,15.20
2019-05-10T08:27:56.651Z,15.10
2019-05-10T08:33:00.193Z,14.80
2019-05-10T08:38:02.342Z,14.60
2019-05-10T08:43:15.613Z,15.50
2019-05-10T08:48:14.150Z,16.50
2019-05-10T08:53:16.664Z,17.10
2019-05-10T08:58:23.860Z,17.60
2019-05-10T09:03:22.717Z,17.40
2019-05-10T09:08:31.528Z,17.60
2019-05-10T09:13:54.637Z,17.10
2019-05-10T09:18:56.434Z,17.40
2019-05-10T09:24:04.888Z,18.30
2019-05-10T09:29:03.330Z,18.70
2019-05-10T09:34:06.786Z,17.90
2019-05-10T09:39:17.658Z,17.80
2019-05-10T09:44:15.979Z,17.00
2019-05-10T09:49:18.672Z,16.30
2019-05-10T09:54:23.376Z,17.20
2019-05-10T09:59:23.402Z,17.70
2019-05-10T10:04:28.286Z,17.90
2019-05-10T10:09:42.448Z,18.70
2019-05-10T10:14:47.097Z,19.30
2019-05-10T10:19:51.178Z,18.50
2019-05-10T10:25:00.521Z,16.40
2019-05-10T10:29:58.896Z,14.60
2019-05-10T10:35:07.893Z,13.50
2019-05-10T10:40:09.949Z,13.40
2019-05-10T10:45:18.595Z,14.60
2019-05-10T10:50:20.072Z,16.70
2019-05-10T10:55:30.523Z,18.10
2019-05-10T11:00:33.686Z,18.20
2019-05-10T11:05:35.233Z,17.80
2019-05-10T11:10:48.011Z,16.90
2019-05-10T11:16:09.977Z,15.90
2019-05-10T11:21:05.942Z,15.60
2019-05-10T11:26:07.410Z,16.90
2019-05-10T11:31:21.441Z,18.10
2019-05-10T11:36:31.085Z,18.00
2019-05-10T11:41:35.205Z,17.50
2019-05-10T11:46:50.640Z,17.00
2019-05-10T11:51:58.553Z,17.50
2019-05-10T12:02:10.335Z,19.80
2019-05-10T12:07:16.418Z,19.80
2019-05-10T12:12:29.703Z,18.50
2019-05-10T12:17:27.362Z,17.10
2019-05-10T12:22:37.579Z,16.40
2019-05-10T12:26:16.068Z,18.60
2019-05-10T12:27:44.399Z,16.10
2019-05-10T12:32:42.041Z,16.20
2019-05-10T12:37:49.471Z,16.50
2019-05-10T12:43:07.176Z,16.90
2019-05-10T12:48:10.618Z,16.80
2019-05-10T12:53:18.341Z,16.80
2019-05-10T12:58:45.212Z,17.40
2019-05-10T13:03:46.615Z,17.30
2019-05-10T13:09:08.282Z,17.80
2019-05-10T13:14:14.760Z,17.70
2019-05-10T13:19:20.265Z,17.90
2019-05-10T13:24:22.612Z,18.10
2019-05-10T13:29:25.935Z,17.70
2019-05-10T13:34:27.447Z,17.80
2019-05-10T13:39:41.169Z,18.70
2019-05-10T13:44:44.657Z,19.70
2019-05-10T13:49:49.547Z,20.10
2019-05-10T13:54:57.969Z,21.20
2019-05-10T14:00:07.305Z,21.30
2019-05-10T14:05:39.779Z,20.40
2019-05-10T14:11:20.307Z,19.40
2019-05-10T14:16:33.717Z,18.40
2019-05-10T14:21:37.340Z,17.70
2019-05-10T14:26:38.826Z,17.60
2019-05-10T14:31:49.194Z,18.10
2019-05-10T14:36:50.631Z,18.30
2019-05-10T14:41:55.314Z,18.60
2019-05-10T14:46:56.664Z,18.90
2019-05-10T14:52:32.747Z,18.70
2019-05-10T14:57:40.175Z,18.40
2019-05-10T15:02:50.839Z,18.10
2019-05-10T15:08:13.658Z,17.90
2019-05-10T15:13:25.901Z,17.60
2019-05-10T15:18:23.508Z,17.80
2019-05-10T15:23:25.901Z,18.90
2019-05-10T15:28:34.574Z,19.70
2019-05-10T15:33:34.815Z,20.00
2019-05-10T15:38:52.260Z,19.50
2019-05-10T15:43:55.009Z,18.80
2019-05-10T15:49:13.437Z,17.70
2019-05-10T15:54:13.118Z,16.80
2019-05-10T15:59:22.581Z,16.00
2019-05-10T16:04:27.121Z,15.40
2019-05-10T16:09:50.007Z,15.00
2019-05-10T16:14:49.178Z,14.40
2019-05-10T16:19:58.906Z,14.10
2019-05-10T16:25:00.872Z,13.90
2019-05-10T16:30:00.583Z,14.00
2019-05-10T16:35:12.408Z,14.40
2019-05-10T16:40:16.939Z,14.70
2019-05-10T16:45:29.249Z,15.00
2019-05-10T16:50:33.959Z,15.10
2019-05-10T16:55:57.243Z,15.20
2019-05-10T17:00:59.804Z,15.20
2019-05-10T17:06:04.219Z,15.00
2019-05-10T17:11:25.300Z,14.70
2019-05-10T17:16:26.579Z,14.80
2019-05-10T17:21:33.918Z,14.80
2019-05-10T17:26:38.468Z,14.70
2019-05-10T17:31:45.572Z,14.40
2019-05-10T17:37:08.187Z,14.20
2019-05-10T17:42:09.559Z,14.10
2019-05-10T17:47:10.867Z,14.10
2019-05-10T17:52:12.160Z,14.10
2019-05-10T17:57:16.593Z,14.00
2019-05-10T18:02:28.692Z,14.00
2019-05-10T18:07:33.227Z,13.90
2019-05-10T18:12:45.050Z,13.80
2019-05-10T18:18:07.856Z,13.50
2019-05-10T18:23:21.463Z,13.40
2019-05-10T18:28:22.419Z,13.20
2019-05-10T18:33:32.904Z,13.00
2019-05-10T18:38:40.959Z,12.90
2019-05-10T18:43:53.233Z,12.80
2019-05-10T18:48:57.788Z,12.80
2019-05-10T18:54:08.162Z,12.70
2019-05-10T18:59:09.650Z,12.70
2019-05-10T19:04:32.768Z,12.60
2019-05-10T19:09:37.244Z,12.50
2019-05-10T19:14:43.023Z,12.40
2019-05-10T19:19:53.288Z,12.30
2019-05-10T19:25:10.134Z,12.20
2019-05-10T19:30:19.911Z,12.10
2019-05-10T19:35:29.976Z,12.00
2019-05-10T19:40:32.346Z,12.00
2019-05-10T19:45:35.668Z,11.90
2019-05-10T19:50:40.198Z,11.90
2019-05-10T19:55:41.675Z,11.90
2019-05-10T20:00:44.172Z,11.90
2019-05-10T20:05:58.436Z,11.90
2019-05-10T20:10:59.929Z,11.90
2019-05-10T20:16:07.098Z,11.80
2019-05-10T20:21:17.658Z,11.80
2019-05-10T20:26:21.259Z,11.80
2019-05-10T20:31:22.779Z,11.70
2019-05-10T20:36:26.319Z,11.80
2019-05-10T20:41:27.773Z,11.70
2019-05-10T20:46:29.285Z,11.70
2019-05-10T20:51:31.672Z,11.60
2019-05-10T20:56:33.122Z,11.60
2019-05-10T21:01:34.719Z,11.60
2019-05-10T21:06:36.114Z,11.50
2019-05-10T21:11:37.552Z,11.50
2019-05-10T21:16:38.863Z,11.40
2019-05-10T21:21:46.112Z,11.40
2019-05-10T21:26:48.444Z,11.40
2019-05-10T21:31:49.913Z,11.30
2019-05-10T21:36:51.375Z,11.30
2019-05-10T21:41:54.088Z,11.30
2019-05-10T21:47:01.399Z,11.20
2019-05-10T21:52:03.892Z,11.20
2019-05-10T21:57:16.322Z,11.20
2019-05-10T22:02:21.502Z,11.10
2019-05-10T22:07:23.159Z,11.00
2019-05-10T22:12:25.115Z,10.90
2019-05-10T22:17:30.400Z,10.90
2019-05-10T22:22:39.942Z,10.90
2019-05-10T22:27:44.463Z,10.90
2019-05-10T22:32:53.939Z,10.90
2019-05-10T22:37:55.424Z,10.90
2019-05-10T22:42:56.872Z,10.90
2019-05-10T22:47:59.278Z,10.80
2019-05-10T22:53:00.781Z,10.80
2019-05-10T22:58:02.341Z,10.80
2019-05-10T23:03:04.965Z,10.70
2019-05-10T23:08:09.461Z,10.70
2019-05-10T23:13:10.941Z,10.70
2019-05-10T23:18:18.252Z,10.70
2019-05-10T23:23:21.072Z,10.70
2019-05-10T23:28:22.737Z,10.60
2019-05-10T23:33:24.224Z,10.70
2019-05-10T23:38:26.619Z,10.70
2019-05-10T23:43:29.003Z,10.70
2019-05-10T23:48:33.543Z,10.70
2019-05-10T23:53:35.013Z,10.60
2019-05-10T23:58:36.543Z,10.60
